createdAt,value
2018-07-03T00:02:19.670Z,12.50
2018-07-03T00:04:48.062Z,12.50
2018-07-03T00:07:16.485Z,12.40
2018-07-03T00:09:44.827Z,12.40
2018-07-03T00:12:13.340Z,12.30
2018-07-03T00:14:44.742Z,12.30
2018-07-03T00:17:16.812Z,12.20
2018-07-03T00:19:48.042Z,12.20
2018-07-03T00:22:16.485Z,12.10
2018-07-03T00:24:45.524Z,12.10
2018-07-03T00:27:14.243Z,12.10
2018-07-03T00:29:42.707Z,12.10
2018-07-03T00:32:11.095Z,12.00
2018-07-03T00:34:39.521Z,11.90
2018-07-03T00:37:07.890Z,11.90
2018-07-03T00:39:36.236Z,11.90
2018-07-03T00:42:04.660Z,11.80
2018-07-03T00:44:33.089Z,11.80
2018-07-03T00:47:01.564Z,11.70
2018-07-03T00:49:29.939Z,11.60
2018-07-03T00:51:58.299Z,11.60
2018-07-03T00:54:26.679Z,11.60
2018-07-03T00:56:55.082Z,11.60
2018-07-03T00:59:23.478Z,11.60
2018-07-03T01:01:51.893Z,11.60
2018-07-03T01:04:20.261Z,11.60
2018-07-03T01:06:48.656Z,11.50
2018-07-03T01:09:17.032Z,11.50
2018-07-03T01:11:45.532Z,11.50
2018-07-03T01:14:13.964Z,11.50
2018-07-03T01:16:42.418Z,11.40
2018-07-03T01:19:10.783Z,11.40
2018-07-03T01:21:39.214Z,11.30
2018-07-03T01:24:07.660Z,11.30
2018-07-03T01:26:36.047Z,11.20
2018-07-03T01:29:04.540Z,11.20
2018-07-03T01:31:32.891Z,11.20
2018-07-03T01:34:01.295Z,11.20
2018-07-03T01:36:29.667Z,11.10
2018-07-03T01:38:58.031Z,11.10
2018-07-03T01:41:26.446Z,11.00
2018-07-03T01:43:54.855Z,11.00
2018-07-03T01:46:23.196Z,11.00
2018-07-03T01:48:51.530Z,10.90
2018-07-03T01:51:19.889Z,10.90
2018-07-03T01:53:48.302Z,10.80
2018-07-03T01:56:16.670Z,10.80
2018-07-03T01:58:45.049Z,10.80
2018-07-03T02:01:13.414Z,10.70
2018-07-03T02:03:41.748Z,10.70
2018-07-03T02:06:10.101Z,10.70
2018-07-03T02:08:38.446Z,10.60
2018-07-03T02:11:06.868Z,10.60
2018-07-03T02:13:35.253Z,10.60
2018-07-03T02:16:05.950Z,10.60
2018-07-03T02:18:34.378Z,10.50
2018-07-03T02:21:02.884Z,10.50
2018-07-03T02:23:31.475Z,10.50
2018-07-03T02:25:59.914Z,10.40
2018-07-03T02:28:28.281Z,10.40
2018-07-03T02:30:56.671Z,10.40
2018-07-03T02:33:25.040Z,10.40
2018-07-03T02:35:53.404Z,10.30
2018-07-03T02:43:17.923Z,10.30
2018-07-03T02:45:46.337Z,10.30
2018-07-03T02:48:14.716Z,10.30
2018-07-03T02:50:43.104Z,10.30
2018-07-03T02:53:11.472Z,10.20
2018-07-03T02:55:40.105Z,10.20
2018-07-03T02:58:08.882Z,10.10
2018-07-03T03:00:37.255Z,10.10
2018-07-03T03:03:05.672Z,10.00
2018-07-03T03:05:34.043Z,10.00
2018-07-03T03:08:02.968Z,9.90
2018-07-03T03:10:31.845Z,9.90
2018-07-03T03:13:00.247Z,9.80
2018-07-03T03:15:28.751Z,9.80
2018-07-03T03:17:57.247Z,9.80
2018-07-03T03:20:25.625Z,9.70
2018-07-03T03:22:54.028Z,9.70
2018-07-03T03:25:22.372Z,9.70
2018-07-03T03:27:50.750Z,9.70
2018-07-03T03:30:19.115Z,9.80
2018-07-03T03:32:47.501Z,9.80
2018-07-03T03:35:15.915Z,9.80
2018-07-03T03:37:44.386Z,9.90
2018-07-03T03:40:12.823Z,9.90
2018-07-03T03:42:41.219Z,9.90
2018-07-03T03:45:10.001Z,9.90
2018-07-03T03:47:38.373Z,9.90
2018-07-03T03:50:07.699Z,9.90
2018-07-03T03:52:36.091Z,9.90
2018-07-03T03:55:04.634Z,9.90
2018-07-03T03:57:33.031Z,9.90
2018-07-03T04:00:01.411Z,9.90
2018-07-03T04:02:29.799Z,9.90
2018-07-03T04:04:58.172Z,9.90
2018-07-03T04:07:26.544Z,9.90
2018-07-03T04:09:54.930Z,9.90
2018-07-03T04:12:23.313Z,10.00
2018-07-03T04:14:51.694Z,10.00
2018-07-03T04:17:20.078Z,10.10
2018-07-03T04:19:48.449Z,10.10
2018-07-03T04:22:16.815Z,10.20
2018-07-03T04:27:13.269Z,10.40
2018-07-03T04:29:41.640Z,10.50
2018-07-03T04:32:09.974Z,10.60
2018-07-03T04:34:39.947Z,10.70
2018-07-03T04:37:08.290Z,10.80
2018-07-03T04:39:36.622Z,10.90
2018-07-03T04:42:05.042Z,11.00
2018-07-03T04:44:33.421Z,11.10
2018-07-03T04:47:01.805Z,11.20
2018-07-03T04:49:30.170Z,11.30
2018-07-03T04:51:58.526Z,11.50
2018-07-03T04:54:26.893Z,11.60
2018-07-03T04:56:55.275Z,11.70
2018-07-03T04:59:23.769Z,11.90
2018-07-03T05:01:52.092Z,12.10
2018-07-03T05:04:20.513Z,12.40
2018-07-03T05:06:48.862Z,12.70
2018-07-03T05:09:17.357Z,13.00
2018-07-03T05:11:45.719Z,13.30
2018-07-03T05:14:14.033Z,13.60
2018-07-03T05:16:42.477Z,13.90
2018-07-03T05:19:10.863Z,14.20
2018-07-03T05:21:39.208Z,14.50
2018-07-03T05:26:35.665Z,15.00
2018-07-03T05:29:04.051Z,15.20
2018-07-03T05:31:32.464Z,15.40
2018-07-03T05:34:00.891Z,15.60
2018-07-03T05:36:29.268Z,15.90
2018-07-03T05:38:57.615Z,16.10
2018-07-03T05:41:25.944Z,16.40
2018-07-03T05:43:54.356Z,16.60
2018-07-03T05:46:22.704Z,16.80
2018-07-03T05:48:51.071Z,17.00
2018-07-03T05:51:19.441Z,17.20
2018-07-03T05:53:47.807Z,17.40
2018-07-03T05:56:16.185Z,17.70
2018-07-03T05:58:44.522Z,18.00
2018-07-03T06:01:12.871Z,18.20
2018-07-03T06:03:41.323Z,18.30
2018-07-03T06:06:09.800Z,18.50
2018-07-03T06:08:38.152Z,18.80
2018-07-03T06:11:07.607Z,19.10
2018-07-03T06:13:35.982Z,19.30
2018-07-03T06:16:04.532Z,19.40
2018-07-03T06:18:39.458Z,19.70
2018-07-03T06:21:07.842Z,19.80
2018-07-03T06:23:36.210Z,19.90
2018-07-03T06:26:04.575Z,20.10
2018-07-03T06:28:32.960Z,20.10
2018-07-03T06:31:01.355Z,20.40
2018-07-03T06:33:29.729Z,20.60
2018-07-03T06:35:58.142Z,20.90
2018-07-03T06:38:26.535Z,21.00
2018-07-03T06:40:54.954Z,21.30
2018-07-03T06:43:23.305Z,21.50
2018-07-03T06:45:51.649Z,21.60
2018-07-03T06:48:20.021Z,21.80
2018-07-03T06:50:48.411Z,21.90
2018-07-03T06:53:16.815Z,22.20
2018-07-03T06:55:45.225Z,22.50
2018-07-03T06:58:13.556Z,22.70
2018-07-03T07:00:41.958Z,22.90
2018-07-03T07:03:10.348Z,23.10
2018-07-03T07:05:38.695Z,23.30
2018-07-03T07:08:07.087Z,23.30
2018-07-03T07:10:35.471Z,23.10
2018-07-03T07:13:03.872Z,23.40
2018-07-03T07:15:32.307Z,23.70
2018-07-03T07:18:01.628Z,23.40
2018-07-03T07:20:30.315Z,23.80
2018-07-03T07:22:58.691Z,23.70
2018-07-03T07:25:27.052Z,23.90
2018-07-03T07:27:55.528Z,24.30
2018-07-03T07:30:23.864Z,24.70
2018-07-03T07:32:52.220Z,24.90
2018-07-03T07:35:20.606Z,25.30
2018-07-03T07:37:48.999Z,25.60
2018-07-03T07:40:17.339Z,25.30
2018-07-03T07:42:45.692Z,25.10
2018-07-03T07:45:14.117Z,25.40
2018-07-03T07:47:42.861Z,25.70
2018-07-03T07:50:11.242Z,25.90
2018-07-03T07:52:39.785Z,26.50
2018-07-03T07:55:08.111Z,26.80
2018-07-03T07:57:36.505Z,27.10
2018-07-03T08:00:05.529Z,27.10
2018-07-03T08:02:33.909Z,27.20
2018-07-03T08:05:02.379Z,26.90
2018-07-03T08:07:30.782Z,27.00
2018-07-03T08:09:59.147Z,27.40
2018-07-03T08:12:27.614Z,28.00
2018-07-03T08:14:55.985Z,28.10
2018-07-03T08:17:24.370Z,28.00
2018-07-03T08:19:52.810Z,27.80
2018-07-03T08:22:21.248Z,28.00
2018-07-03T08:24:49.591Z,28.40
2018-07-03T08:27:17.992Z,28.80
2018-07-03T08:29:46.366Z,28.40
2018-07-03T08:32:14.755Z,28.80
2018-07-03T08:34:43.182Z,28.90
2018-07-03T08:37:11.651Z,28.80
2018-07-03T08:39:40.110Z,28.70
2018-07-03T08:42:08.591Z,28.80
2018-07-03T08:44:36.937Z,29.20
2018-07-03T08:47:05.306Z,29.70
2018-07-03T08:49:33.774Z,29.50
2018-07-03T08:52:02.176Z,29.90
2018-07-03T08:54:30.494Z,30.10
2018-07-03T08:56:58.853Z,30.30
2018-07-03T08:59:27.207Z,30.30
2018-07-03T09:01:55.589Z,30.40
2018-07-03T09:04:23.905Z,30.70
2018-07-03T09:06:52.299Z,30.80
2018-07-03T09:09:20.689Z,30.80
2018-07-03T09:11:49.101Z,30.70
2018-07-03T09:14:17.437Z,30.90
2018-07-03T09:16:45.832Z,30.90
2018-07-03T09:19:14.241Z,30.70
2018-07-03T09:21:42.651Z,30.80
2018-07-03T09:24:11.001Z,30.70
2018-07-03T09:26:39.391Z,30.60
2018-07-03T09:29:07.773Z,31.10
2018-07-03T09:31:36.143Z,31.50
2018-07-03T09:34:04.648Z,31.80
2018-07-03T09:36:33.063Z,31.80
2018-07-03T09:39:02.230Z,32.10
2018-07-03T09:41:30.641Z,32.30
2018-07-03T09:43:59.047Z,32.60
2018-07-03T09:46:27.519Z,33.00
2018-07-03T09:53:47.106Z,33.20
2018-07-03T09:56:15.731Z,33.50
2018-07-03T09:58:44.228Z,33.40
2018-07-03T10:01:18.652Z,33.40
2018-07-03T10:03:47.048Z,33.20
2018-07-03T10:06:15.591Z,33.40
2018-07-03T10:08:44.076Z,33.70
2018-07-03T10:11:12.598Z,34.10
2018-07-03T10:13:40.970Z,34.10
2018-07-03T10:16:09.656Z,33.70
2018-07-03T10:18:38.211Z,33.80
2018-07-03T10:21:06.679Z,33.80
2018-07-03T10:23:35.441Z,33.30
2018-07-03T10:26:04.131Z,33.30
2018-07-03T10:28:32.670Z,33.50
2018-07-03T10:31:01.123Z,33.30
2018-07-03T10:33:29.599Z,33.10
2018-07-03T10:35:58.176Z,32.90
2018-07-03T10:38:26.808Z,32.90
2018-07-03T10:40:55.489Z,32.50
2018-07-03T10:43:24.107Z,32.10
2018-07-03T10:45:52.595Z,32.20
2018-07-03T10:48:20.989Z,32.40
2018-07-03T10:50:49.445Z,32.70
2018-07-03T10:55:46.257Z,33.00
2018-07-03T10:58:14.764Z,33.20
2018-07-03T11:00:43.118Z,33.30
2018-07-03T11:03:11.641Z,33.50
2018-07-03T11:08:08.464Z,33.70
2018-07-03T11:10:36.954Z,33.70
2018-07-03T11:13:05.442Z,33.80
2018-07-03T11:15:33.914Z,33.80
2018-07-03T11:18:02.603Z,33.70
2018-07-03T11:20:31.105Z,33.30
2018-07-03T11:25:27.736Z,33.20
2018-07-03T11:27:56.144Z,33.70
2018-07-03T11:30:24.634Z,34.00
2018-07-03T11:32:53.056Z,33.80
2018-07-03T11:35:21.472Z,33.80
2018-07-03T11:37:49.981Z,33.50
2018-07-03T11:40:18.348Z,34.00
2018-07-03T11:42:46.672Z,34.30
2018-07-03T11:45:15.255Z,34.50
2018-07-03T11:47:43.788Z,34.30
2018-07-03T11:50:12.205Z,34.30
2018-07-03T11:52:40.598Z,34.30
2018-07-03T11:55:09.059Z,34.80
2018-07-03T11:57:37.564Z,34.10
2018-07-03T12:00:06.188Z,34.50
2018-07-03T12:05:02.772Z,35.00
2018-07-03T12:07:31.204Z,35.10
2018-07-03T12:09:59.662Z,35.40
2018-07-03T12:12:28.132Z,35.80
2018-07-03T12:14:56.625Z,35.80
2018-07-03T12:17:25.166Z,35.60
2018-07-03T12:19:53.733Z,34.50
2018-07-03T12:22:22.141Z,34.00
2018-07-03T12:24:50.683Z,34.10
2018-07-03T12:27:19.172Z,34.30
2018-07-03T12:29:47.620Z,34.30
2018-07-03T12:32:15.997Z,34.10
2018-07-03T12:34:44.476Z,33.30
2018-07-03T12:39:43.136Z,32.60
2018-07-03T12:42:18.092Z,32.30
2018-07-03T12:44:46.498Z,32.60
2018-07-03T12:47:16.174Z,32.60
2018-07-03T12:49:44.736Z,32.90
2018-07-03T12:52:12.976Z,32.90
2018-07-03T12:54:41.520Z,32.90
2018-07-03T12:57:09.989Z,32.90
2018-07-03T12:59:38.550Z,33.10
2018-07-03T13:02:07.067Z,33.10
2018-07-03T13:04:35.517Z,33.00
2018-07-03T13:07:04.067Z,33.10
2018-07-03T13:09:32.539Z,33.00
2018-07-03T13:14:29.209Z,32.80
2018-07-03T13:17:00.715Z,32.30
2018-07-03T13:19:29.264Z,32.60
2018-07-03T13:21:57.599Z,32.90
2018-07-03T13:24:26.008Z,33.20
2018-07-03T13:26:54.385Z,33.30
2018-07-03T13:29:22.832Z,33.40
2018-07-03T13:31:51.217Z,33.50
2018-07-03T13:34:19.570Z,33.20
2018-07-03T13:36:47.947Z,32.70
2018-07-03T13:39:16.407Z,32.00
2018-07-03T13:41:44.864Z,31.60
2018-07-03T13:44:13.335Z,31.30
2018-07-03T13:46:41.791Z,31.50
2018-07-03T13:49:10.239Z,31.90
2018-07-03T13:51:38.669Z,32.10
2018-07-03T13:54:07.128Z,32.30
2018-07-03T13:56:35.608Z,32.60
2018-07-03T13:59:04.163Z,32.90
2018-07-03T14:01:32.719Z,33.10
2018-07-03T14:04:01.383Z,32.90
2018-07-03T14:06:29.874Z,33.20
2018-07-03T14:08:58.394Z,33.50
2018-07-03T14:11:26.870Z,33.70
2018-07-03T14:13:55.304Z,34.00
2018-07-03T14:16:23.777Z,34.20
2018-07-03T14:18:52.294Z,34.40
2018-07-03T14:21:20.696Z,34.60
2018-07-03T14:23:49.379Z,34.50
2018-07-03T14:26:18.024Z,34.50
2018-07-03T14:28:46.400Z,34.50
2018-07-03T14:31:14.829Z,34.50
2018-07-03T14:33:43.380Z,34.70
2018-07-03T14:36:12.138Z,34.80
2018-07-03T14:38:40.613Z,34.90
2018-07-03T14:41:09.692Z,34.40
2018-07-03T14:43:38.559Z,34.20
2018-07-03T14:46:07.051Z,34.00
2018-07-03T14:48:35.435Z,34.10
2018-07-03T14:51:03.860Z,34.10
2018-07-03T14:53:32.382Z,34.20
2018-07-03T14:56:00.779Z,34.10
2018-07-03T14:58:29.215Z,33.50
2018-07-03T15:00:57.684Z,33.60
2018-07-03T15:03:26.119Z,32.80
2018-07-03T15:05:54.681Z,32.80
2018-07-03T15:08:23.149Z,33.10
2018-07-03T15:10:51.606Z,33.50
2018-07-03T15:13:20.183Z,33.90
2018-07-03T15:15:48.796Z,34.00
2018-07-03T15:18:17.298Z,34.40
2018-07-03T15:20:45.876Z,34.70
2018-07-03T15:23:14.415Z,34.60
2018-07-03T15:25:43.006Z,34.50
2018-07-03T15:28:11.574Z,34.70
2018-07-03T15:30:40.152Z,34.50
2018-07-03T15:33:09.543Z,34.30
2018-07-03T15:35:37.950Z,34.20
2018-07-03T15:38:06.685Z,34.00
2018-07-03T15:40:35.076Z,34.00
2018-07-03T15:43:03.622Z,33.80
2018-07-03T15:45:32.160Z,33.30
2018-07-03T15:48:00.851Z,33.00
2018-07-03T15:50:29.497Z,32.90
2018-07-03T15:52:58.156Z,33.00
2018-07-03T15:55:26.564Z,33.00
2018-07-03T15:57:55.020Z,32.90
2018-07-03T16:00:23.573Z,32.90
2018-07-03T16:06:11.097Z,32.80
2018-07-03T16:09:12.061Z,32.60
2018-07-03T16:11:40.849Z,32.40
2018-07-03T16:14:10.499Z,32.20
2018-07-03T16:16:39.111Z,32.10
2018-07-03T16:19:12.920Z,32.00
2018-07-03T16:21:41.338Z,31.90
2018-07-03T16:24:10.082Z,31.40
2018-07-03T16:26:39.075Z,31.40
2018-07-03T16:29:09.244Z,31.20
2018-07-03T16:31:37.687Z,31.10
2018-07-03T16:34:06.192Z,30.90
2018-07-03T16:36:34.689Z,30.90
2018-07-03T16:39:04.251Z,30.90
2018-07-03T16:41:32.750Z,30.90
2018-07-03T16:44:01.346Z,30.80
2018-07-03T16:46:29.777Z,30.70
2018-07-03T16:48:58.377Z,30.60
2018-07-03T16:51:26.860Z,30.60
2018-07-03T16:53:55.309Z,30.50
2018-07-03T16:56:23.774Z,30.50
2018-07-03T16:58:52.339Z,30.20
2018-07-03T17:01:20.764Z,30.20
2018-07-03T17:03:49.107Z,30.10
2018-07-03T17:06:17.574Z,29.90
2018-07-03T17:08:46.048Z,29.80
2018-07-03T17:11:14.441Z,29.70
2018-07-03T17:13:42.847Z,29.70
2018-07-03T17:16:11.287Z,29.70
2018-07-03T17:18:44.135Z,29.70
2018-07-03T17:21:12.623Z,29.60
2018-07-03T17:23:40.975Z,29.50
2018-07-03T17:26:09.347Z,29.40
2018-07-03T17:28:38.034Z,29.40
2018-07-03T17:31:06.812Z,29.40
2018-07-03T17:33:35.248Z,29.30
2018-07-03T17:36:03.682Z,29.30
2018-07-03T17:38:32.402Z,29.20
2018-07-03T17:41:12.147Z,29.20
2018-07-03T17:46:21.930Z,29.10
2018-07-03T17:48:50.399Z,28.90
2018-07-03T17:51:18.939Z,28.90
2018-07-03T17:53:47.521Z,28.70
2018-07-03T17:56:15.998Z,28.60
2018-07-03T17:58:44.467Z,28.50
2018-07-03T18:01:12.965Z,28.40
2018-07-03T18:03:41.411Z,28.30
2018-07-03T18:06:09.808Z,28.20
2018-07-03T18:08:38.425Z,28.10
2018-07-03T18:11:06.954Z,28.00
2018-07-03T18:13:35.450Z,27.90
2018-07-03T18:16:03.864Z,27.80
2018-07-03T18:18:32.261Z,27.80
2018-07-03T18:21:00.702Z,27.60
2018-07-03T18:23:29.092Z,27.60
2018-07-03T18:25:57.670Z,27.50
2018-07-03T18:28:26.283Z,27.40
2018-07-03T18:30:54.838Z,27.40
2018-07-03T18:33:23.399Z,27.30
2018-07-03T18:35:51.868Z,27.20
2018-07-03T18:38:20.399Z,27.10
2018-07-03T18:40:48.913Z,27.00
2018-07-03T18:45:45.715Z,26.80
2018-07-03T18:48:14.149Z,26.70
2018-07-03T18:50:42.547Z,26.60
2018-07-03T18:53:12.980Z,26.50
2018-07-03T18:55:41.536Z,26.40
2018-07-03T18:58:09.970Z,26.30
2018-07-03T19:00:38.356Z,26.20
2018-07-03T19:03:06.931Z,26.10
2018-07-03T19:05:35.375Z,26.00
2018-07-03T19:08:03.789Z,25.90
2018-07-03T19:10:32.148Z,25.80
2018-07-03T19:13:00.528Z,25.60
2018-07-03T19:15:28.909Z,25.50
2018-07-03T19:17:57.342Z,25.40
2018-07-03T19:20:25.792Z,25.20
2018-07-03T19:22:54.322Z,25.10
2018-07-03T19:25:22.807Z,25.00
2018-07-03T19:27:51.323Z,24.80
2018-07-03T19:30:19.720Z,24.70
2018-07-03T19:32:48.267Z,24.50
2018-07-03T19:35:16.778Z,24.20
2018-07-03T19:37:45.218Z,24.00
2018-07-03T19:42:53.142Z,23.70
2018-07-03T19:45:21.658Z,23.60
2018-07-03T19:47:50.177Z,23.40
2018-07-03T19:50:18.605Z,23.20
2018-07-03T19:52:47.059Z,23.00
2018-07-03T19:55:15.569Z,22.90
2018-07-03T19:57:44.128Z,22.80
2018-07-03T20:00:12.811Z,22.60
2018-07-03T20:02:41.164Z,22.50
2018-07-03T20:05:09.607Z,22.40
2018-07-03T20:07:38.150Z,22.30
2018-07-03T20:10:06.502Z,22.20
2018-07-03T20:12:35.048Z,22.00
2018-07-03T20:15:03.544Z,21.90
2018-07-03T20:17:31.985Z,21.80
2018-07-03T20:20:00.470Z,21.80
2018-07-03T20:22:28.895Z,21.70
2018-07-03T20:24:57.745Z,21.60
2018-07-03T20:27:26.251Z,21.50
2018-07-03T20:29:54.655Z,21.40
2018-07-03T20:32:23.073Z,21.30
2018-07-03T20:34:51.478Z,21.20
2018-07-03T20:37:20.010Z,21.20
2018-07-03T20:39:48.442Z,21.10
2018-07-03T20:42:16.851Z,21.00
2018-07-03T20:44:45.381Z,20.90
2018-07-03T20:47:13.824Z,20.90
2018-07-03T20:49:42.379Z,20.80
2018-07-03T20:52:10.814Z,20.70
2018-07-03T20:54:39.221Z,20.60
2018-07-03T20:57:07.680Z,20.60
2018-07-03T20:59:36.051Z,20.50
2018-07-03T21:02:04.488Z,20.40
2018-07-03T21:04:32.893Z,20.30
2018-07-03T21:07:01.275Z,20.20
2018-07-03T21:09:29.678Z,20.20
2018-07-03T21:11:58.062Z,20.10
2018-07-03T21:14:26.456Z,20.10
2018-07-03T21:16:54.884Z,20.00
2018-07-03T21:19:24.367Z,19.90
2018-07-03T21:21:54.384Z,19.90
2018-07-03T21:24:23.273Z,19.80
2018-07-03T21:26:51.630Z,19.70
2018-07-03T21:29:19.988Z,19.70
2018-07-03T21:31:48.465Z,19.60
2018-07-03T21:34:16.769Z,19.50
2018-07-03T21:36:45.104Z,19.40
2018-07-03T21:39:13.552Z,19.40
2018-07-03T21:41:41.914Z,19.30
2018-07-03T21:44:10.348Z,19.20
2018-07-03T21:46:39.232Z,19.10
2018-07-03T21:49:07.591Z,19.00
2018-07-03T21:51:35.915Z,18.90
2018-07-03T21:54:04.371Z,18.90
2018-07-03T21:56:32.763Z,18.70
2018-07-03T21:59:02.333Z,18.70
2018-07-03T22:01:30.702Z,18.60
2018-07-03T22:03:59.084Z,18.50
2018-07-03T22:06:27.620Z,18.50
2018-07-03T22:08:56.048Z,18.40
2018-07-03T22:11:24.416Z,18.30
2018-07-03T22:13:52.807Z,18.30
2018-07-03T22:16:21.180Z,18.20
2018-07-03T22:18:49.737Z,18.10
2018-07-03T22:21:20.352Z,18.00
2018-07-03T22:23:48.709Z,18.00
2018-07-03T22:26:17.057Z,17.90
2018-07-03T22:28:45.594Z,17.80
2018-07-03T22:31:14.069Z,17.70
2018-07-03T22:33:42.419Z,17.70
2018-07-03T22:36:10.814Z,17.60
2018-07-03T22:38:39.321Z,17.40
2018-07-03T22:41:07.712Z,17.40
2018-07-03T22:43:36.171Z,17.30
2018-07-03T22:46:04.701Z,17.20
2018-07-03T22:48:33.110Z,17.20
2018-07-03T22:51:01.503Z,17.10
2018-07-03T22:53:30.162Z,17.10
2018-07-03T22:55:58.557Z,17.00
2018-07-03T22:58:26.947Z,16.90
2018-07-03T23:00:55.267Z,16.90
2018-07-03T23:03:23.644Z,16.80
2018-07-03T23:05:52.013Z,16.70
2018-07-03T23:08:20.495Z,16.60
2018-07-03T23:10:48.840Z,16.60
2018-07-03T23:13:17.213Z,16.50
2018-07-03T23:15:45.580Z,16.50
2018-07-03T23:18:13.921Z,16.40
2018-07-03T23:20:42.311Z,16.40
2018-07-03T23:23:10.663Z,16.30
2018-07-03T23:25:39.047Z,16.20
2018-07-03T23:28:07.415Z,16.10
2018-07-03T23:30:35.766Z,16.10
2018-07-03T23:33:04.121Z,15.90
2018-07-03T23:35:32.471Z,15.90
2018-07-03T23:38:00.821Z,15.80
2018-07-03T23:40:29.213Z,15.80
2018-07-03T23:42:57.562Z,15.70
2018-07-03T23:45:30.968Z,15.70
2018-07-03T23:48:10.524Z,15.60
2018-07-03T23:50:50.082Z,15.60
2018-07-03T23:53:29.738Z,15.50
2018-07-03T23:56:09.208Z,15.40
2018-07-03T23:58:48.974Z,15.30
